Terminal Aerodrome Forecast
Issued by NWS Twin Cities, MN

Home | Current Version | Previous Version | Text Only | Print | Product List | Glossary Off
Versions: 1 2 3 4 5 6 7 8 9 10 11 12 13 14

000
FTUS43 KMPX 221031 AAB
TAFSTC
TAF AMD
KSTC 221031Z 2211/2306 00000KT 6SM BR SCT005 BKN040
      TEMPO 2212/2213 1SM BR VV005
     FM221400 VRB03KT 3SM BR BKN012
     FM221600 VRB03KT P6SM BKN020
     FM221800 16004KT P6SM SCT035=

USA.gov is the U.S. government's official web portal to all federal, state and local government web resources and services.